Time;durP1;ratioP1;P1;durP2;ratioP2;P2;SDS_P1;SDS_P2;PMS_P1;PMS_P2;Temp;Humidity;BMP_temperature;BMP_pressure;BME280_temperature;BME280_humidity;BME280_pressure;Samples;Min_cycle;Max_cycle;Signal;HPM_P1;HPM_P2
2020/12/17 00:02:00;;;;;;;74.32;40.65;;;;;;;-1.29;89.37;93764.12;1744492;80;21270;-79
2020/12/17 00:04:29;;;;;;;75.97;42.30;;;;;;;-1.30;89.24;93767.89;1747304;81;21228;-79
2020/12/17 00:06:58;;;;;;;79.50;42.90;;;;;;;-1.32;89.24;93772.73;1752204;80;21519;-81
2020/12/17 00:09:26;;;;;;;85.60;46.30;;;;;;;-1.34;89.28;93771.73;1797209;79;21361;-85
2020/12/17 00:11:58;;;;;;;68.03;36.97;;;;;;;-1.35;89.32;93772.83;1781286;79;21374;-81
2020/12/17 00:14:26;;;;;;;72.47;40.17;;;;;;;-1.35;89.44;93775.50;1732878;80;21706;-84
2020/12/17 00:16:54;;;;;;;67.00;38.23;;;;;;;-1.37;89.46;93769.67;1720875;82;21651;-82
2020/12/17 00:19:23;;;;;;;69.83;39.80;;;;;;;-1.40;89.53;93774.84;1738642;81;21200;-82
2020/12/17 00:21:55;;;;;;;75.23;41.67;;;;;;;-1.44;89.66;93777.91;1770286;80;22048;-84
2020/12/17 00:24:23;;;;;;;69.13;37.90;;;;;;;-1.43;89.92;93773.58;1796492;79;21597;-79
2020/12/17 00:26:51;;;;;;;64.63;38.87;;;;;;;-1.40;89.95;93776.96;1775651;80;21136;-80
2020/12/17 00:29:19;;;;;;;66.57;35.90;;;;;;;-1.40;89.85;93772.96;1779344;79;21595;-86
2020/12/17 00:31:52;;;;;;;72.53;42.13;;;;;;;-1.47;89.75;93776.11;1813690;77;21240;-85
2020/12/17 00:34:20;;;;;;;76.93;42.30;;;;;;;-1.52;89.72;93780.78;1795241;77;21222;-83
2020/12/17 00:36:53;;;;;;;72.60;41.07;;;;;;;-1.60;89.77;93780.22;1774166;79;21366;-82
2020/12/17 00:39:23;;;;;;;68.37;41.20;;;;;;;-1.67;90.04;93786.55;1798479;77;21297;-82
2020/12/17 00:41:51;;;;;;;66.90;40.20;;;;;;;-1.68;90.37;93792.44;1763955;80;21123;-82
2020/12/17 00:44:21;;;;;;;66.57;41.05;;;;;;;-1.62;90.58;93793.06;1779696;78;21069;-79
2020/12/17 00:46:50;;;;;;;69.87;40.07;;;;;;;-1.58;90.58;93798.02;1776921;79;21666;-83
2020/12/17 00:49:19;;;;;;;65.57;37.87;;;;;;;-1.57;90.62;93795.06;1790810;77;21155;-81
2020/12/17 00:51:47;;;;;;;74.33;42.13;;;;;;;-1.54;90.74;93793.11;1817514;77;21648;-83
2020/12/17 00:54:16;;;;;;;66.23;37.97;;;;;;;-1.49;90.79;93790.84;1775401;78;21076;-78
2020/12/17 00:56:49;;;;;;;65.03;39.08;;;;;;;-1.42;90.69;93797.06;1740372;81;21247;-82
2020/12/17 00:59:17;;;;;;;78.17;42.83;;;;;;;-1.43;90.44;93790.92;1799287;78;21267;-81
2020/12/17 01:01:45;;;;;;;70.77;39.33;;;;;;;-1.44;90.47;93792.58;1787861;78;21193;-79
2020/12/17 01:04:13;;;;;;;77.47;43.40;;;;;;;-1.43;90.43;93794.14;1742172;78;21179;-82
2020/12/17 01:06:42;;;;;;;77.57;45.50;;;;;;;-1.47;90.30;93791.30;1740240;80;21227;-84
2020/12/17 01:09:11;;;;;;;72.53;42.23;;;;;;;-1.49;90.36;93793.51;1743231;80;21302;-81
2020/12/17 01:12:07;;;;;;;73.33;40.37;;;;;;;-1.52;90.30;93790.13;1733017;81;21081;-78
2020/12/17 01:14:35;;;;;;;72.20;39.80;;;;;;;-1.54;90.41;93791.78;1738337;81;21442;-84
2020/12/17 01:17:06;;;;;;;73.10;39.03;;;;;;;-1.56;90.44;93785.95;1736910;81;21664;-81
2020/12/17 01:19:34;;;;;;;70.13;37.27;;;;;;;-1.56;90.43;93793.17;1732849;82;21673;-77
2020/12/17 01:22:02;;;;;;;66.57;36.57;;;;;;;-1.56;90.40;93795.84;1719335;82;21252;-86
2020/12/17 01:24:32;;;;;;;70.10;36.03;;;;;;;-1.58;90.34;93800.16;1732335;81;21155;-80
2020/12/17 01:27:00;;;;;;;61.30;32.87;;;;;;;-1.63;90.30;93796.28;1737049;82;21191;-85
2020/12/17 01:29:28;;;;;;;64.83;35.30;;;;;;;-1.66;90.42;93802.78;1782912;79;21653;-81
2020/12/17 01:31:58;;;;;;;57.87;31.77;;;;;;;-1.69;90.48;93807.39;1786036;78;21120;-81
2020/12/17 01:34:28;;;;;;;61.13;34.13;;;;;;;-1.69;90.61;93806.05;1781334;79;21104;-81
2020/12/17 01:36:56;;;;;;;63.07;35.17;;;;;;;-1.69;90.59;93810.05;1736867;80;21281;-80
2020/12/17 01:39:25;;;;;;;47.43;27.70;;;;;;;-1.73;90.54;93809.36;1763489;80;21226;-86
2020/12/17 01:41:53;;;;;;;52.40;28.10;;;;;;;-1.74;90.61;93804.32;1802306;78;21277;-84
2020/12/17 01:44:22;;;;;;;44.90;26.73;;;;;;;-1.78;90.66;93806.81;1755029;78;21666;-81
2020/12/17 01:46:52;;;;;;;43.47;26.33;;;;;;;-1.77;90.70;93811.08;1779878;78;21163;-80
2020/12/17 01:49:25;;;;;;;44.90;25.67;;;;;;;-1.77;90.72;93818.27;1757399;80;21198;-81
2020/12/17 01:51:54;;;;;;;48.13;26.13;;;;;;;-1.79;90.77;93815.92;1783631;78;21360;-81
2020/12/17 01:54:22;;;;;;;43.13;24.30;;;;;;;-1.77;90.84;93820.93;1758758;80;21158;-82
2020/12/17 01:57:02;;;;;;;46.47;26.57;;;;;;;-1.74;90.85;93820.32;1764240;79;21212;-82
2020/12/17 01:59:48;;;;;;;46.13;26.67;;;;;;;-1.77;90.67;93809.74;1766215;79;21215;-81
2020/12/17 02:02:18;;;;;;;52.53;29.63;;;;;;;-1.78;90.73;93815.36;1769110;79;21266;-81
2020/12/17 02:04:46;;;;;;;48.97;27.47;;;;;;;-1.82;90.64;93816.53;1752263;81;21372;-85
2020/12/17 02:07:15;;;;;;;54.37;29.93;;;;;;;-1.84;90.75;93813.40;1764596;79;21159;-86
2020/12/17 02:09:44;;;;;;;54.70;31.50;;;;;;;-1.86;90.80;93810.23;1806382;78;21147;-85
2020/12/17 02:12:14;;;;;;;48.07;28.57;;;;;;;-1.87;90.91;93812.67;1764976;80;21187;-82
2020/12/17 02:14:42;;;;;;;49.07;27.33;;;;;;;-1.89;90.91;93818.84;1723939;80;23014;-84
2020/12/17 02:17:10;;;;;;;48.43;27.43;;;;;;;-1.89;90.93;93815.39;1799371;76;21200;-83
2020/12/17 02:19:38;;;;;;;51.60;28.53;;;;;;;-1.92;90.91;93818.12;1794523;76;21152;-82
2020/12/17 02:22:06;;;;;;;46.63;26.30;;;;;;;-1.94;90.97;93814.98;1767689;80;21158;-81
2020/12/17 02:24:35;;;;;;;48.17;26.80;;;;;;;-1.96;91.07;93815.83;1766787;80;21229;-84
2020/12/17 02:27:03;;;;;;;46.20;26.40;;;;;;;-1.99;91.11;93806.59;1707318;82;21559;-78
2020/12/17 02:29:31;;;;;;;44.17;25.13;;;;;;;-1.99;91.18;93809.25;1676091;83;22075;-84
2020/12/17 02:32:00;;;;;;;47.33;25.60;;;;;;;-1.98;91.27;93810.03;1751695;78;21268;-80
2020/12/17 02:34:28;;;;;;;45.30;24.57;;;;;;;-1.97;91.18;93810.27;1804130;78;21255;-82
2020/12/17 02:36:56;;;;;;;45.37;26.00;;;;;;;-1.99;91.21;93805.80;1758954;80;21077;-82
2020/12/17 02:39:25;;;;;;;48.00;26.63;;;;;;;-1.97;91.19;93806.27;1776287;80;21071;-81
2020/12/17 02:41:53;;;;;;;55.83;31.10;;;;;;;-1.99;91.31;93807.92;1774496;80;21436;-82
2020/12/17 02:44:22;;;;;;;51.63;30.17;;;;;;;-1.93;91.44;93804.56;1778758;77;21135;-84
2020/12/17 02:46:50;;;;;;;55.30;32.90;;;;;;;-1.88;91.42;93811.11;1804143;77;21196;-83
2020/12/17 02:49:18;;;;;;;62.03;32.33;;;;;;;-1.87;91.22;93796.67;1777914;80;21156;-86
2020/12/17 02:51:47;;;;;;;64.40;34.40;;;;;;;-1.88;91.12;93797.78;1772020;80;21222;-84
2020/12/17 02:54:15;;;;;;;62.47;33.13;;;;;;;-1.88;91.08;93795.63;1699778;83;21372;-83
2020/12/17 02:56:43;;;;;;;58.07;32.53;;;;;;;-1.89;90.96;93799.41;1755282;80;21511;-81
2020/12/17 02:59:11;;;;;;;61.73;34.80;;;;;;;-1.91;90.95;93801.05;1767426;79;21562;-80
2020/12/17 03:01:40;;;;;;;64.57;35.70;;;;;;;-1.92;91.02;93789.34;1757965;79;21101;-87
2020/12/17 03:04:08;;;;;;;66.73;35.10;;;;;;;-1.93;90.91;93791.78;1768846;79;21116;-82
2020/12/17 03:06:36;;;;;;;63.87;34.53;;;;;;;-1.97;90.80;93790.27;1764145;80;21235;-82
2020/12/17 03:09:06;;;;;;;68.47;36.73;;;;;;;-2.01;90.80;93791.98;1796337;78;21590;-81
2020/12/17 03:11:36;;;;;;;69.37;36.30;;;;;;;-2.02;90.84;93789.09;1794088;78;21558;-81
2020/12/17 03:14:04;;;;;;;62.37;33.97;;;;;;;-2.03;91.04;93786.97;1779705;80;21597;-84
2020/12/17 03:16:32;;;;;;;63.10;34.57;;;;;;;-1.98;91.10;93786.05;1771370;79;21242;-84
2020/12/17 03:19:01;;;;;;;67.33;35.70;;;;;;;-1.94;90.94;93789.67;1758962;79;21266;-82
2020/12/17 03:21:30;;;;;;;69.40;35.17;;;;;;;-1.98;90.70;93785.50;1762204;80;21708;-81
2020/12/17 03:23:58;;;;;;;51.27;29.87;;;;;;;-1.97;90.83;93784.95;1813952;78;21117;-86
2020/12/17 03:26:26;;;;;;;54.60;30.93;;;;;;;-2.01;90.64;93779.99;1807635;78;21589;-86
2020/12/17 03:28:54;;;;;;;57.40;30.90;;;;;;;-2.01;90.76;93780.78;1769172;79;21287;-85
2020/12/17 03:31:22;;;;;;;72.47;36.37;;;;;;;-1.99;90.71;93780.48;1776374;79;21610;-82
2020/12/17 03:33:51;;;;;;;84.03;37.73;;;;;;;-1.99;90.67;93779.94;1774581;78;21218;-85
2020/12/17 03:36:20;;;;;;;80.00;36.87;;;;;;;-2.01;90.47;93776.00;1745914;80;21171;-85
2020/12/17 03:38:48;;;;;;;76.50;38.70;;;;;;;-2.08;90.37;93775.65;1796461;79;21626;-79
2020/12/17 03:41:17;;;;;;;72.73;33.67;;;;;;;-2.18;90.39;93775.39;1772667;79;21172;-83
2020/12/17 03:43:45;;;;;;;71.00;35.13;;;;;;;-2.25;90.54;93773.70;1844872;76;21645;-82
2020/12/17 03:46:14;;;;;;;56.90;30.30;;;;;;;-2.31;90.58;93781.02;1788946;78;21064;-82
2020/12/17 03:48:43;;;;;;;59.60;32.40;;;;;;;-2.36;90.72;93774.50;1843632;77;21180;-84
2020/12/17 03:51:13;;;;;;;55.63;30.23;;;;;;;-2.43;90.87;93777.36;1761608;79;21194;-82
2020/12/17 03:53:41;;;;;;;50.63;27.83;;;;;;;-2.49;91.07;93775.34;1803373;79;21131;-82
2020/12/17 03:56:10;;;;;;;53.33;27.83;;;;;;;-2.55;91.22;93779.25;1770723;79;21202;-81
2020/12/17 03:58:38;;;;;;;45.10;25.57;;;;;;;-2.57;91.44;93781.41;1730826;79;22201;-84
2020/12/17 04:01:07;;;;;;;49.67;27.47;;;;;;;-2.59;91.59;93762.31;1820199;78;21218;-81
2020/12/17 04:03:35;;;;;;;49.93;27.77;;;;;;;-2.57;91.78;93773.42;1820010;77;21578;-81
2020/12/17 04:06:03;;;;;;;43.53;23.97;;;;;;;-2.54;91.93;93778.93;1818795;77;21119;-83
2020/12/17 04:08:31;;;;;;;49.97;28.33;;;;;;;-2.55;91.71;93785.36;1816606;77;21199;-82
2020/12/17 04:11:00;;;;;;;52.37;28.13;;;;;;;-2.61;91.76;93787.11;1785672;79;21635;-85
2020/12/17 04:13:28;;;;;;;47.53;25.40;;;;;;;-2.65;92.00;93786.92;1799627;78;21165;-83
2020/12/17 04:15:59;;;;;;;51.17;27.17;;;;;;;-2.63;92.26;93787.42;1757779;80;21714;-81
2020/12/17 04:18:27;;;;;;;54.80;28.40;;;;;;;-2.62;92.20;93788.98;1798932;78;21159;-79
2020/12/17 04:20:55;;;;;;;54.63;29.13;;;;;;;-2.62;92.28;93786.33;1812657;78;21204;-80
2020/12/17 04:23:23;;;;;;;47.60;27.17;;;;;;;-2.56;92.53;93789.63;1774684;79;21195;-84
2020/12/17 04:25:52;;;;;;;47.70;27.00;;;;;;;-2.51;92.58;93781.55;1792713;79;21164;-80
2020/12/17 04:28:20;;;;;;;53.30;28.07;;;;;;;-2.45;92.35;93786.41;1757360;80;21174;-80
2020/12/17 04:30:48;;;;;;;53.50;29.97;;;;;;;-2.46;92.03;93783.52;1751795;79;21163;-82
2020/12/17 04:33:16;;;;;;;50.53;27.33;;;;;;;-2.46;91.85;93794.72;1732676;80;21207;-79
2020/12/17 04:35:44;;;;;;;51.93;28.50;;;;;;;-2.48;91.81;93791.59;1747594;80;21668;-86
2020/12/17 04:38:14;;;;;;;48.60;27.50;;;;;;;-2.46;91.87;93798.72;1767699;79;21067;-81
2020/12/17 04:40:42;;;;;;;53.37;30.00;;;;;;;-2.46;91.86;93800.05;1736575;81;21577;-79
2020/12/17 04:43:10;;;;;;;48.90;30.23;;;;;;;-2.46;92.00;93798.16;1792088;79;21169;-84
2020/12/17 04:45:39;;;;;;;48.37;27.77;;;;;;;-2.39;92.12;93794.30;1792472;79;21256;-82
2020/12/17 04:48:07;;;;;;;43.67;27.00;;;;;;;-2.32;92.12;93794.11;1775803;79;21600;-83
2020/12/17 04:50:35;;;;;;;47.53;29.40;;;;;;;-2.27;92.00;93793.97;1779013;78;21486;-82
2020/12/17 04:53:04;;;;;;;54.63;32.03;;;;;;;-2.24;91.81;93790.70;1832288;77;21564;-84
2020/12/17 04:55:33;;;;;;;54.27;30.50;;;;;;;-2.21;91.59;93790.09;1743046;80;21076;-84
2020/12/17 04:58:02;;;;;;;51.17;28.87;;;;;;;-2.21;91.40;93794.09;1814103;77;22080;-82
2020/12/17 05:00:30;;;;;;;42.70;26.27;;;;;;;-2.20;91.36;93798.31;1795929;77;21177;-82
2020/12/17 05:02:58;;;;;;;46.73;27.03;;;;;;;-2.23;91.08;93792.27;1769110;79;21654;-83
2020/12/17 05:05:26;;;;;;;46.70;28.30;;;;;;;-2.29;91.18;93791.39;1759417;78;21158;-85
2020/12/17 05:07:55;;;;;;;42.50;25.97;;;;;;;-2.29;91.34;93791.39;1812148;78;21674;-84
2020/12/17 05:10:24;;;;;;;49.43;29.77;;;;;;;-2.29;91.25;93798.05;1762848;80;21514;-84
2020/12/17 05:12:53;;;;;;;43.63;25.77;;;;;;;-2.30;91.10;93789.80;1786507;79;21217;-81
2020/12/17 05:15:25;;;;;;;45.33;26.57;;;;;;;-2.31;90.84;93793.56;1799828;78;21211;-85
2020/12/17 05:17:53;;;;;;;44.87;25.97;;;;;;;-2.36;90.87;93793.14;1769362;79;21680;-84
2020/12/17 05:20:21;;;;;;;45.13;26.93;;;;;;;-2.34;91.02;93793.61;1822119;77;21309;-83
2020/12/17 05:22:49;;;;;;;45.37;25.37;;;;;;;-2.33;91.08;93796.53;1796112;79;22067;-85
2020/12/17 05:25:18;;;;;;;42.10;25.47;;;;;;;-2.29;91.15;93796.16;1725648;81;21151;-82
2020/12/17 05:27:46;;;;;;;46.43;25.80;;;;;;;-2.26;91.06;93794.23;1710370;82;21231;-81
2020/12/17 05:30:15;;;;;;;41.47;23.93;;;;;;;-2.25;90.86;93794.47;1736752;80;21143;-82
2020/12/17 05:32:43;;;;;;;50.10;30.93;;;;;;;-2.24;90.97;93790.70;1779397;78;21182;-80
2020/12/17 05:35:14;;;;;;;74.97;43.83;;;;;;;-2.19;91.00;93793.77;1728346;81;21412;-85
2020/12/17 05:37:43;;;;;;;77.03;40.73;;;;;;;-2.16;90.93;93794.50;1759761;80;21263;-82
2020/12/17 05:40:12;;;;;;;71.90;41.07;;;;;;;-2.14;90.94;93796.84;1726218;81;21126;-81
2020/12/17 05:42:41;;;;;;;74.10;42.37;;;;;;;-2.11;90.82;93790.91;1751420;80;21247;-85
2020/12/17 05:45:25;;;;;;;77.83;43.80;;;;;;;-2.14;90.79;93796.84;1727467;80;21190;-82
2020/12/17 05:48:20;;;;;;;84.23;45.30;;;;;;;-2.13;90.87;93787.23;1846847;76;22391;-79
2020/12/17 05:51:01;;;;;;;69.57;41.47;;;;;;;-2.16;90.76;93798.50;1844511;76;21601;-79
2020/12/17 05:53:34;;;;;;;65.13;36.83;;;;;;;-2.17;90.68;93802.81;1796236;78;21614;-88
2020/12/17 05:56:07;;;;;;;64.90;38.97;;;;;;;-2.18;90.75;93798.03;1742988;81;21231;-79
2020/12/17 05:58:41;;;;;;;127.30;68.43;;;;;;;-2.14;90.64;93804.31;1832535;77;21478;-79
2020/12/17 06:01:12;;;;;;;69.00;39.67;;;;;;;-2.10;90.63;93802.61;1848225;77;21043;-78
2020/12/17 06:03:41;;;;;;;63.63;40.57;;;;;;;-2.11;90.49;93803.69;1824303;77;21155;-77
2020/12/17 06:06:09;;;;;;;71.27;42.90;;;;;;;-2.15;90.61;93803.27;1829808;77;21356;-77
2020/12/17 06:08:40;;;;;;;54.27;32.47;;;;;;;-2.15;90.64;93801.94;1855445;76;21019;-81
2020/12/17 06:11:10;;;;;;;55.37;29.73;;;;;;;-2.15;90.41;93806.72;1778401;78;21167;-80
2020/12/17 06:13:41;;;;;;;44.47;27.57;;;;;;;-2.17;90.40;93810.80;1801236;78;21149;-78
2020/12/17 06:16:11;;;;;;;36.47;20.73;;;;;;;-2.15;90.47;93809.94;1817875;77;21183;-81
2020/12/17 06:18:40;;;;;;;43.83;26.70;;;;;;;-2.13;90.39;93813.09;1829733;78;22044;-78
2020/12/17 06:21:11;;;;;;;43.37;24.53;;;;;;;-2.11;90.48;93806.34;1871444;76;21045;-82
2020/12/17 06:23:39;;;;;;;37.20;22.90;;;;;;;-2.07;90.44;93808.67;1825270;75;21163;-79
2020/12/17 06:26:11;;;;;;;41.50;24.33;;;;;;;-2.06;90.34;93809.45;1805774;78;21100;-81
2020/12/17 06:28:48;;;;;;;33.17;21.47;;;;;;;-2.05;90.45;93809.13;1793530;79;21602;-80
2020/12/17 06:31:19;;;;;;;37.73;22.00;;;;;;;-2.01;90.47;93814.09;1776454;79;21261;-79
2020/12/17 06:33:48;;;;;;;40.87;24.23;;;;;;;-1.96;90.45;93810.50;1777372;77;21104;-78
2020/12/17 06:36:35;;;;;;;43.93;26.53;;;;;;;-1.90;90.41;93815.95;1819139;78;21156;-79
2020/12/17 06:39:06;;;;;;;67.67;37.37;;;;;;;-1.89;90.25;93814.84;1830327;76;21583;-78
2020/12/17 06:41:34;;;;;;;80.00;43.33;;;;;;;-1.92;90.11;93818.67;1825563;78;21182;-79
2020/12/17 06:44:26;;;;;;;88.17;47.37;;;;;;;-1.93;90.15;93819.77;1828815;78;21204;-78
2020/12/17 06:47:00;;;;;;;83.87;44.00;;;;;;;-1.94;90.29;93824.87;1834226;78;21176;-76
2020/12/17 06:49:30;;;;;;;98.00;51.25;;;;;;;-1.96;90.22;93822.49;1820650;78;21592;-76
2020/12/17 06:52:08;;;;;;;105.43;56.13;;;;;;;-1.98;90.29;93823.36;1766823;79;21173;-76
2020/12/17 06:54:41;;;;;;;128.60;67.23;;;;;;;-1.96;90.29;93827.83;1818602;78;21163;-76
2020/12/17 06:57:16;;;;;;;105.97;54.87;;;;;;;-1.92;90.35;93838.11;1793017;78;21366;-77
2020/12/17 06:59:53;;;;;;;94.20;51.93;;;;;;;-1.92;90.26;93825.33;1806701;78;21748;-75
2020/12/17 07:02:40;;;;;;;93.70;52.37;;;;;;;-1.88;90.24;93824.44;1888797;76;22621;-77
2020/12/17 07:05:30;;;;;;;86.10;47.47;;;;;;;-1.92;90.33;93823.45;1754389;80;21139;-81
2020/12/17 07:07:59;;;;;;;95.27;51.33;;;;;;;-1.92;90.31;93828.78;1734544;81;22651;-77
2020/12/17 07:10:29;;;;;;;117.77;64.57;;;;;;;-1.92;90.42;93836.00;1789802;77;21323;-78
2020/12/17 07:12:57;;;;;;;95.63;55.13;;;;;;;-1.94;90.45;93834.98;1814536;78;21603;-77
2020/12/17 07:15:36;;;;;;;76.37;41.37;;;;;;;-1.93;90.53;93839.77;1823683;77;21169;-76
2020/12/17 07:18:24;;;;;;;62.33;36.83;;;;;;;-1.90;90.75;93838.61;1795610;78;21162;-74
2020/12/17 07:21:03;;;;;;;91.60;50.10;;;;;;;-1.84;90.77;93841.91;1812277;78;21721;-77
2020/12/17 07:23:36;;;;;;;110.93;59.03;;;;;;;-1.79;90.81;93843.91;1808902;79;21047;-79
2020/12/17 07:26:13;;;;;;;99.93;56.57;;;;;;;-1.75;90.77;93844.08;1793668;78;21168;-76
2020/12/17 07:28:41;;;;;;;103.50;56.63;;;;;;;-1.69;90.77;93846.86;1791381;79;21429;-77
2020/12/17 07:31:11;;;;;;;100.73;57.50;;;;;;;-1.59;90.86;93845.79;1774446;79;21169;-78
2020/12/17 07:33:42;;;;;;;87.00;48.20;;;;;;;-1.48;90.75;93840.42;1794115;78;21772;-76
2020/12/17 07:36:11;;;;;;;82.43;47.83;;;;;;;-1.36;90.48;93836.60;1792903;78;21162;-77
2020/12/17 07:38:40;;;;;;;76.23;46.17;;;;;;;-1.27;90.20;93841.43;1819148;77;21650;-77
2020/12/17 07:41:26;;;;;;;75.90;43.33;;;;;;;-1.20;89.92;93839.65;1829971;78;21148;-77
2020/12/17 07:43:54;;;;;;;71.00;42.83;;;;;;;-1.12;89.74;93844.22;1841194;77;21160;-78
2020/12/17 07:46:39;;;;;;;78.97;47.47;;;;;;;-1.03;89.53;93839.66;1819560;78;21640;-77
2020/12/17 07:49:26;;;;;;;71.23;40.70;;;;;;;-0.91;89.44;93836.93;1854606;77;21167;-76
2020/12/17 07:51:55;;;;;;;60.13;36.90;;;;;;;-0.80;89.27;93837.65;1809525;78;21148;-78
2020/12/17 07:54:23;;;;;;;71.17;42.60;;;;;;;-0.69;88.95;93832.00;1813289;78;21160;-81
2020/12/17 07:57:00;;;;;;;84.75;47.05;;;;;;;-0.58;88.81;93826.59;1747183;82;21195;-81
2020/12/17 07:59:28;;;;;;;115.60;57.30;;;;;;;-0.49;88.47;93822.02;1834716;76;21167;-76
2020/12/17 08:02:03;;;;;;;77.12;42.75;;;;;;;-0.41;88.05;93824.47;1851300;77;21126;-78
2020/12/17 08:04:30;;;;;;;98.72;51.68;;;;;;;-0.28;88.02;93823.50;1805756;77;21192;-75
2020/12/17 08:07:10;;;;;;;70.85;39.92;;;;;;;-0.06;88.50;93829.20;1761326;78;21594;-78
2020/12/17 08:09:38;;;;;;;38.92;25.52;;;;;;;0.34;88.27;93828.39;1804124;79;21619;-76
2020/12/17 08:12:12;;;;;;;64.35;38.50;;;;;;;0.89;87.85;93828.04;1703200;84;21211;-75
2020/12/17 08:14:40;;;;;;;31.87;20.87;;;;;;;1.44;86.50;93822.47;1741800;82;21232;-78
2020/12/17 08:17:08;;;;;;;37.35;24.35;;;;;;;1.99;85.14;93826.48;1792378;79;21160;-76
2020/12/17 08:19:37;;;;;;;29.45;18.30;;;;;;;2.43;83.38;93823.57;1799190;78;21173;-77
2020/12/17 08:22:06;;;;;;;18.55;13.80;;;;;;;2.86;81.41;93823.05;1833741;77;21166;-77
2020/12/17 08:24:34;;;;;;;15.70;11.95;;;;;;;3.36;80.23;93817.05;1796261;77;22594;-76
2020/12/17 08:27:03;;;;;;;23.90;17.85;;;;;;;3.81;78.24;93822.75;1788379;80;21186;-76
2020/12/17 08:29:31;;;;;;;19.82;13.78;;;;;;;3.98;76.49;93815.71;1792106;79;21637;-76
2020/12/17 08:31:59;;;;;;;22.65;15.68;;;;;;;3.97;75.62;93812.81;1779272;80;21171;-75
2020/12/17 08:34:27;;;;;;;32.78;22.07;;;;;;;3.99;73.14;93815.17;1773846;79;21206;-77
2020/12/17 08:36:56;;;;;;;35.43;23.62;;;;;;;3.99;73.14;93815.17;1793405;79;22491;-77
2020/12/17 08:39:24;;;;;;;44.80;28.75;;;;;;;4.09;72.99;93816.00;1793580;79;21181;-76
2020/12/17 08:41:54;;;;;;;45.52;31.95;;;;;;;4.28;72.22;93818.03;1793443;79;21633;-75
2020/12/17 08:44:31;;;;;;;55.75;35.65;;;;;;;4.56;72.25;93814.73;1766666;79;21545;-76
2020/12/17 08:47:02;;;;;;;52.08;33.25;;;;;;;4.89;70.38;93820.34;1792963;77;21178;-75
2020/12/17 08:49:30;;;;;;;53.48;35.08;;;;;;;5.04;68.28;93820.08;1758232;80;22117;-76
2020/12/17 08:51:58;;;;;;;60.65;38.83;;;;;;;5.04;67.26;93821.43;1779958;79;21387;-80
2020/12/17 08:54:32;;;;;;;56.25;36.33;;;;;;;5.04;67.20;93821.43;1797378;79;21130;-76
2020/12/17 08:57:11;;;;;;;52.63;34.47;;;;;;;5.10;67.27;93813.30;1795499;79;21170;-76
2020/12/17 08:59:39;;;;;;;50.70;34.00;;;;;;;5.17;66.58;93811.34;1785774;77;21189;-78
2020/12/17 09:02:07;;;;;;;49.23;31.87;;;;;;;5.14;67.76;93806.07;1803779;78;21642;-76
2020/12/17 09:04:35;;;;;;;47.13;32.88;;;;;;;5.21;67.46;93804.89;1786321;79;21170;-75
2020/12/17 09:07:03;;;;;;;53.98;36.95;;;;;;;5.40;66.95;93804.14;1780932;80;21457;-77
2020/12/17 09:09:33;;;;;;;52.98;34.23;;;;;;;5.54;65.80;93800.98;1718766;83;21186;-79
2020/12/17 09:12:03;;;;;;;52.93;33.23;;;;;;;5.48;65.89;93801.03;1752253;81;21640;-75
2020/12/17 09:14:35;;;;;;;57.25;35.68;;;;;;;5.23;65.97;93801.86;1746107;82;21166;-78
2020/12/17 09:17:14;;;;;;;56.80;37.85;;;;;;;4.96;66.99;93807.01;1748597;80;21461;-78
2020/12/17 09:19:47;;;;;;;54.27;35.03;;;;;;;4.74;68.25;93797.66;1750871;81;21232;-78
2020/12/17 09:22:19;;;;;;;60.08;35.75;;;;;;;4.51;68.36;93794.77;1736537;80;21185;-76
2020/12/17 09:24:48;;;;;;;49.03;28.57;;;;;;;4.28;68.97;93796.50;1779586;80;21122;-74
2020/12/17 09:27:28;;;;;;;35.83;22.30;;;;;;;4.13;70.13;93794.78;1798795;79;21222;-76
2020/12/17 09:30:13;;;;;;;34.27;20.15;;;;;;;4.06;70.83;93794.62;1753314;81;21639;-76
2020/12/17 09:32:52;;;;;;;36.65;21.65;;;;;;;3.98;71.54;93784.77;1767174;81;21753;-77
2020/12/17 09:35:22;;;;;;;37.08;20.52;;;;;;;3.99;71.81;93778.28;1776373;79;21193;-75
2020/12/17 09:38:05;;;;;;;37.15;23.15;;;;;;;4.03;71.71;93779.72;1765153;80;21230;-78
2020/12/17 09:40:35;;;;;;;39.15;24.15;;;;;;;4.02;71.75;93780.27;1806530;78;21344;-76
2020/12/17 09:43:10;;;;;;;38.80;23.65;;;;;;;4.00;71.95;93782.53;1795141;79;21195;-76
2020/12/17 09:45:45;;;;;;;;;;;;;;;3.98;72.02;93779.39;1775005;81;21155;-77
2020/12/17 09:48:29;;;;;;;39.08;24.20;;;;;;;3.99;72.12;93774.81;1819332;78;20275;-79
2020/12/17 09:51:21;;;;;;;39.55;25.95;;;;;;;4.04;72.33;93774.55;1847908;77;21488;-77
2020/12/17 09:53:54;;;;;;;40.75;24.30;;;;;;;4.12;72.19;93774.38;1808816;78;22134;-77
2020/12/17 09:56:23;;;;;;;34.95;22.22;;;;;;;4.17;71.65;93769.88;1750645;79;21242;-76
2020/12/17 09:58:51;;;;;;;38.92;25.82;;;;;;;4.18;71.47;93768.20;1753688;80;21210;-75
2020/12/17 10:01:19;;;;;;;41.00;26.10;;;;;;;4.19;71.58;93765.72;1776375;80;21582;-77
2020/12/17 10:03:47;;;;;;;38.28;25.20;;;;;;;4.24;71.27;93765.45;1776797;80;21452;-76
2020/12/17 10:06:15;;;;;;;33.38;22.52;;;;;;;4.35;71.35;93766.50;1786966;80;21798;-78
2020/12/17 10:08:43;;;;;;;40.40;25.25;;;;;;;4.60;70.89;93766.34;1774084;80;21197;-76
2020/12/17 10:11:12;;;;;;;41.45;26.45;;;;;;;4.84;70.85;93759.96;1755294;80;21197;-77
2020/12/17 10:13:40;;;;;;;36.65;23.42;;;;;;;5.04;70.50;93766.17;1759918;81;21204;-76
2020/12/17 10:16:08;;;;;;;36.73;24.98;;;;;;;5.19;69.83;93768.62;1770621;80;21590;-79
2020/12/17 10:18:37;;;;;;;38.20;24.67;;;;;;;5.19;69.38;93761.34;1795628;78;21664;-76
2020/12/17 10:21:05;;;;;;;40.90;25.40;;;;;;;5.21;69.25;93764.45;1821665;78;21187;-76
2020/12/17 10:23:33;;;;;;;41.73;27.52;;;;;;;5.17;68.87;93762.81;1788288;78;21218;-76
2020/12/17 10:26:02;;;;;;;47.00;30.77;;;;;;;5.06;68.77;93761.23;1749296;80;21163;-77
2020/12/17 10:28:30;;;;;;;45.35;30.17;;;;;;;4.97;68.70;93769.52;1774599;79;21152;-78
2020/12/17 10:31:00;;;;;;;46.65;28.65;;;;;;;4.84;68.68;93768.05;1805293;78;21196;-77
2020/12/17 10:33:28;;;;;;;41.88;25.77;;;;;;;4.70;68.91;93763.12;1796567;79;21195;-76
2020/12/17 10:35:56;;;;;;;39.75;28.60;;;;;;;4.56;69.04;93762.78;1779361;80;21176;-77
2020/12/17 10:38:24;;;;;;;36.70;24.40;;;;;;;4.43;69.88;93760.72;1816618;78;21154;-78
2020/12/17 10:40:52;;;;;;;37.55;25.77;;;;;;;4.43;69.88;93760.72;1799459;78;21242;-79
2020/12/17 10:43:21;;;;;;;37.90;25.25;;;;;;;4.37;70.00;93765.60;1801992;78;21197;-78
2020/12/17 10:45:49;;;;;;;40.75;25.75;;;;;;;4.26;70.52;93763.77;1822190;78;21689;-78
2020/12/17 10:48:17;;;;;;;42.00;25.00;;;;;;;4.26;70.52;93763.77;1819620;78;21203;-78
2020/12/17 10:50:48;;;;;;;37.70;24.45;;;;;;;4.21;70.85;93757.28;1754446;79;21217;-78
2020/12/17 10:53:16;;;;;;;36.03;24.50;;;;;;;4.23;70.80;93763.11;1789991;80;21491;-77
2020/12/17 10:55:44;;;;;;;38.05;26.82;;;;;;;4.18;70.75;93756.08;1803760;79;21419;-78
2020/12/17 10:58:15;;;;;;;37.20;24.50;;;;;;;4.12;70.98;93754.20;1821526;77;22253;-77
2020/12/17 11:00:44;;;;;;;37.13;22.75;;;;;;;4.09;71.22;93760.83;1804999;78;21199;-78
2020/12/17 11:03:13;;;;;;;37.33;24.50;;;;;;;4.02;71.16;93752.00;1769143;79;21207;-77
2020/12/17 11:05:41;;;;;;;34.78;22.05;;;;;;;4.03;71.30;93756.84;1822478;77;21156;-75
2020/12/17 11:08:10;;;;;;;37.17;25.55;;;;;;;4.00;71.33;93754.27;1833949;76;22081;-78
2020/12/17 11:10:38;;;;;;;33.05;20.52;;;;;;;3.97;71.25;93767.06;1847872;77;21206;-78
2020/12/17 11:13:08;;;;;;;31.12;19.82;;;;;;;3.92;71.02;93767.33;1810504;78;21145;-79
2020/12/17 11:15:36;;;;;;;38.25;24.77;;;;;;;3.88;71.28;93769.14;1818809;78;21195;-77
2020/12/17 11:18:04;;;;;;;33.60;22.22;;;;;;;3.83;71.52;93759.39;1761565;81;21178;-78
2020/12/17 11:20:32;;;;;;;37.03;23.65;;;;;;;3.81;71.71;93753.59;1785477;79;21507;-77
2020/12/17 11:23:03;;;;;;;28.90;21.10;;;;;;;3.82;71.87;93747.08;1826790;77;21206;-79
2020/12/17 11:25:36;;;;;;;29.35;21.17;;;;;;;3.84;71.94;93746.18;1827445;77;21164;-77
2020/12/17 11:28:02;;;;;;;28.92;19.10;;;;;;;3.85;72.09;93738.32;1798041;78;21199;-79
2020/12/17 11:30:31;;;;;;;32.10;20.97;;;;;;;3.85;72.22;93741.02;1780372;80;21185;-80
2020/12/17 11:32:59;;;;;;;30.82;20.95;;;;;;;3.88;72.35;93739.55;1788452;78;21784;-80
2020/12/17 11:35:28;;;;;;;38.05;24.35;;;;;;;3.89;72.50;93733.03;1801143;79;21203;-76